sensor_id;sensor_type;location;lat;lon;timestamp;pressure;altitude;pressure_sealevel;temperature;humidity
7962;BME280;4026;43.652;24.906;2023-04-30T00:01:25;98905.97;;;12.90;60.00
7962;BME280;4026;43.652;24.906;2023-04-30T00:03:52;98911.63;;;12.84;60.40
7962;BME280;4026;43.652;24.906;2023-04-30T00:06:18;98911.59;;;12.74;60.69
7962;BME280;4026;43.652;24.906;2023-04-30T00:08:45;98909.69;;;12.76;60.00
7962;BME280;4026;43.652;24.906;2023-04-30T00:11:13;98909.97;;;12.73;60.67
7962;BME280;4026;43.652;24.906;2023-04-30T00:13:40;98911.94;;;12.60;61.25
7962;BME280;4026;43.652;24.906;2023-04-30T00:16:08;98905.34;;;12.67;60.63
7962;BME280;4026;43.652;24.906;2023-04-30T00:18:35;98903.72;;;12.66;61.12
7962;BME280;4026;43.652;24.906;2023-04-30T00:21:02;98912.59;;;12.62;61.45
7962;BME280;4026;43.652;24.906;2023-04-30T00:23:29;98904.66;;;12.65;61.06
7962;BME280;4026;43.652;24.906;2023-04-30T00:25:56;98906.03;;;12.69;60.70
7962;BME280;4026;43.652;24.906;2023-04-30T00:28:24;98909.22;;;12.61;60.35
7962;BME280;4026;43.652;24.906;2023-04-30T00:30:51;98901.25;;;12.55;60.28
7962;BME280;4026;43.652;24.906;2023-04-30T00:33:18;98904.97;;;12.51;60.57
7962;BME280;4026;43.652;24.906;2023-04-30T00:35:45;98897.63;;;12.57;60.10
7962;BME280;4026;43.652;24.906;2023-04-30T00:38:12;98909.00;;;12.43;60.61
7962;BME280;4026;43.652;24.906;2023-04-30T00:40:39;98912.00;;;12.49;60.52
7962;BME280;4026;43.652;24.906;2023-04-30T00:43:07;98909.00;;;12.43;60.11
7962;BME280;4026;43.652;24.906;2023-04-30T00:45:35;98904.00;;;12.42;60.40
7962;BME280;4026;43.652;24.906;2023-04-30T00:48:03;98903.06;;;12.43;60.44
7962;BME280;4026;43.652;24.906;2023-04-30T00:50:30;98907.41;;;12.42;59.38
7962;BME280;4026;43.652;24.906;2023-04-30T00:52:57;98905.56;;;12.33;60.73
7962;BME280;4026;43.652;24.906;2023-04-30T00:55:25;98912.78;;;12.39;60.34
7962;BME280;4026;43.652;24.906;2023-04-30T00:57:53;98907.66;;;12.39;59.85
7962;BME280;4026;43.652;24.906;2023-04-30T01:00:20;98905.19;;;12.38;60.13
7962;BME280;4026;43.652;24.906;2023-04-30T01:02:49;98908.13;;;12.33;60.72
7962;BME280;4026;43.652;24.906;2023-04-30T01:05:15;98902.53;;;12.39;60.44
7962;BME280;4026;43.652;24.906;2023-04-30T01:07:42;98902.09;;;12.34;60.35
7962;BME280;4026;43.652;24.906;2023-04-30T01:10:11;98900.84;;;12.29;60.59
7962;BME280;4026;43.652;24.906;2023-04-30T01:12:42;98897.47;;;12.28;60.88
7962;BME280;4026;43.652;24.906;2023-04-30T01:15:18;98901.63;;;12.29;60.69
7962;BME280;4026;43.652;24.906;2023-04-30T01:17:54;98895.56;;;12.30;60.34
7962;BME280;4026;43.652;24.906;2023-04-30T01:20:22;98895.97;;;12.26;60.28
7962;BME280;4026;43.652;24.906;2023-04-30T01:23:01;98891.75;;;12.24;60.67
7962;BME280;4026;43.652;24.906;2023-04-30T01:26:02;98896.50;;;12.29;59.47
7962;BME280;4026;43.652;24.906;2023-04-30T01:28:35;98888.03;;;12.29;60.36
7962;BME280;4026;43.652;24.906;2023-04-30T01:31:10;98894.22;;;12.26;60.13
7962;BME280;4026;43.652;24.906;2023-04-30T01:33:38;98891.38;;;12.29;60.66
7962;BME280;4026;43.652;24.906;2023-04-30T01:36:29;98889.00;;;12.37;59.18
7962;BME280;4026;43.652;24.906;2023-04-30T01:39:08;98877.94;;;12.37;60.01
7962;BME280;4026;43.652;24.906;2023-04-30T01:41:49;98883.63;;;12.40;59.69
7962;BME280;4026;43.652;24.906;2023-04-30T01:44:31;98872.41;;;12.41;58.96
7962;BME280;4026;43.652;24.906;2023-04-30T01:47:05;98870.44;;;12.45;60.06
7962;BME280;4026;43.652;24.906;2023-04-30T01:49:45;98871.50;;;12.42;59.30
7962;BME280;4026;43.652;24.906;2023-04-30T01:52:22;98870.03;;;12.50;59.30
7962;BME280;4026;43.652;24.906;2023-04-30T01:54:54;98873.72;;;12.57;59.05
7962;BME280;4026;43.652;24.906;2023-04-30T01:57:28;98863.72;;;12.54;59.29
7962;BME280;4026;43.652;24.906;2023-04-30T01:59:59;98870.28;;;12.46;59.67
7962;BME280;4026;43.652;24.906;2023-04-30T02:02:26;98869.31;;;12.38;60.57
7962;BME280;4026;43.652;24.906;2023-04-30T02:04:52;98876.81;;;12.30;60.83
7962;BME280;4026;43.652;24.906;2023-04-30T02:07:36;98873.00;;;12.24;61.89
7962;BME280;4026;43.652;24.906;2023-04-30T02:10:05;98871.00;;;12.07;66.41
7962;BME280;4026;43.652;24.906;2023-04-30T02:12:32;98877.78;;;12.08;66.21
7962;BME280;4026;43.652;24.906;2023-04-30T02:15:01;98877.94;;;11.95;66.00
7962;BME280;4026;43.652;24.906;2023-04-30T02:17:28;98886.41;;;11.74;67.64
7962;BME280;4026;43.652;24.906;2023-04-30T02:19:55;98884.97;;;11.61;70.45
7962;BME280;4026;43.652;24.906;2023-04-30T02:22:22;98881.50;;;11.50;72.16
7962;BME280;4026;43.652;24.906;2023-04-30T02:24:49;98884.31;;;11.47;73.61
7962;BME280;4026;43.652;24.906;2023-04-30T02:27:18;98872.13;;;11.28;76.45
7962;BME280;4026;43.652;24.906;2023-04-30T02:29:45;98875.91;;;11.13;79.78
7962;BME280;4026;43.652;24.906;2023-04-30T02:32:14;98875.56;;;11.06;81.94
7962;BME280;4026;43.652;24.906;2023-04-30T02:34:40;98878.38;;;10.92;84.02
7962;BME280;4026;43.652;24.906;2023-04-30T02:37:08;98877.47;;;10.71;87.91
7962;BME280;4026;43.652;24.906;2023-04-30T02:39:34;98870.38;;;10.52;90.30
7962;BME280;4026;43.652;24.906;2023-04-30T02:42:01;98872.56;;;10.34;93.38
7962;BME280;4026;43.652;24.906;2023-04-30T02:44:29;98872.66;;;10.21;95.22
7962;BME280;4026;43.652;24.906;2023-04-30T02:46:55;98873.06;;;10.15;96.34
7962;BME280;4026;43.652;24.906;2023-04-30T02:49:23;98870.88;;;10.10;98.20
7962;BME280;4026;43.652;24.906;2023-04-30T02:51:51;98872.94;;;10.05;98.83
7962;BME280;4026;43.652;24.906;2023-04-30T02:54:17;98877.13;;;10.06;99.19
7962;BME280;4026;43.652;24.906;2023-04-30T02:56:45;98882.69;;;10.00;99.65
7962;BME280;4026;43.652;24.906;2023-04-30T02:59:12;98875.69;;;9.91;100.00
7962;BME280;4026;43.652;24.906;2023-04-30T03:01:39;98882.88;;;9.86;98.69
7962;BME280;4026;43.652;24.906;2023-04-30T03:04:06;98882.09;;;9.96;97.07
7962;BME280;4026;43.652;24.906;2023-04-30T03:06:34;98888.03;;;10.08;93.40
7962;BME280;4026;43.652;24.906;2023-04-30T03:09:01;98889.47;;;10.12;92.52
7962;BME280;4026;43.652;24.906;2023-04-30T03:11:28;98897.22;;;10.11;94.73
7962;BME280;4026;43.652;24.906;2023-04-30T03:13:54;98886.19;;;10.10;96.42
7962;BME280;4026;43.652;24.906;2023-04-30T03:16:21;98894.78;;;10.09;96.69
7962;BME280;4026;43.652;24.906;2023-04-30T03:18:48;98887.69;;;10.02;98.21
7962;BME280;4026;43.652;24.906;2023-04-30T03:21:15;98889.31;;;10.03;98.03
7962;BME280;4026;43.652;24.906;2023-04-30T03:23:43;98895.22;;;10.03;97.96
7962;BME280;4026;43.652;24.906;2023-04-30T03:26:10;98898.13;;;9.98;99.27
7962;BME280;4026;43.652;24.906;2023-04-30T03:28:37;98894.38;;;9.91;99.99
7962;BME280;4026;43.652;24.906;2023-04-30T03:31:04;98889.41;;;9.90;99.51
7962;BME280;4026;43.652;24.906;2023-04-30T03:33:31;98891.59;;;9.94;99.29
7962;BME280;4026;43.652;24.906;2023-04-30T03:35:57;98903.34;;;9.97;99.40
7962;BME280;4026;43.652;24.906;2023-04-30T03:38:24;98896.34;;;9.88;100.00
7962;BME280;4026;43.652;24.906;2023-04-30T03:40:52;98897.50;;;9.84;100.00
7962;BME280;4026;43.652;24.906;2023-04-30T03:43:20;98904.94;;;9.87;100.00
7962;BME280;4026;43.652;24.906;2023-04-30T03:45:47;98904.72;;;9.90;100.00
7962;BME280;4026;43.652;24.906;2023-04-30T03:48:14;98906.34;;;9.91;100.00
7962;BME280;4026;43.652;24.906;2023-04-30T03:50:41;98902.66;;;9.95;100.00
7962;BME280;4026;43.652;24.906;2023-04-30T03:53:07;98899.53;;;10.03;100.00
7962;BME280;4026;43.652;24.906;2023-04-30T03:55:34;98899.69;;;10.12;100.00
7962;BME280;4026;43.652;24.906;2023-04-30T03:58:02;98907.31;;;10.01;100.00
7962;BME280;4026;43.652;24.906;2023-04-30T04:00:29;98897.09;;;10.01;100.00
7962;BME280;4026;43.652;24.906;2023-04-30T04:02:57;98903.72;;;10.04;100.00
7962;BME280;4026;43.652;24.906;2023-04-30T04:05:24;98901.16;;;10.04;100.00
7962;BME280;4026;43.652;24.906;2023-04-30T04:07:51;98894.41;;;10.03;100.00
7962;BME280;4026;43.652;24.906;2023-04-30T04:10:17;98906.28;;;10.04;100.00
7962;BME280;4026;43.652;24.906;2023-04-30T04:12:44;98909.28;;;10.09;100.00
7962;BME280;4026;43.652;24.906;2023-04-30T04:15:13;98901.31;;;10.13;100.00
7962;BME280;4026;43.652;24.906;2023-04-30T04:17:40;98899.69;;;10.24;100.00
7962;BME280;4026;43.652;24.906;2023-04-30T04:20:07;98909.06;;;10.12;100.00
7962;BME280;4026;43.652;24.906;2023-04-30T04:22:34;98906.06;;;10.07;100.00
7962;BME280;4026;43.652;24.906;2023-04-30T04:25:01;98916.63;;;10.13;100.00
7962;BME280;4026;43.652;24.906;2023-04-30T04:27:28;98906.91;;;10.18;100.00
7962;BME280;4026;43.652;24.906;2023-04-30T04:29:55;98912.09;;;10.17;100.00
7962;BME280;4026;43.652;24.906;2023-04-30T04:32:23;98919.03;;;10.28;100.00
7962;BME280;4026;43.652;24.906;2023-04-30T04:34:50;98917.06;;;10.42;100.00
7962;BME280;4026;43.652;24.906;2023-04-30T04:37:18;98919.53;;;10.67;100.00
7962;BME280;4026;43.652;24.906;2023-04-30T04:39:45;98922.09;;;10.78;100.00
7962;BME280;4026;43.652;24.906;2023-04-30T04:42:13;98929.75;;;10.89;100.00
7962;BME280;4026;43.652;24.906;2023-04-30T04:44:40;98923.72;;;11.01;100.00
7962;BME280;4026;43.652;24.906;2023-04-30T04:47:08;98931.38;;;11.13;100.00
7962;BME280;4026;43.652;24.906;2023-04-30T04:49:38;98937.19;;;11.26;100.00
7962;BME280;4026;43.652;24.906;2023-04-30T04:52:05;98933.16;;;11.55;100.00
7962;BME280;4026;43.652;24.906;2023-04-30T04:54:32;98941.13;;;11.73;100.00
7962;BME280;4026;43.652;24.906;2023-04-30T04:56:59;98941.19;;;11.83;100.00
7962;BME280;4026;43.652;24.906;2023-04-30T04:59:27;98941.25;;;12.04;100.00
7962;BME280;4026;43.652;24.906;2023-04-30T05:01:54;98938.28;;;12.41;100.00
7962;BME280;4026;43.652;24.906;2023-04-30T05:04:21;98939.16;;;12.82;100.00
7962;BME280;4026;43.652;24.906;2023-04-30T05:06:49;98946.53;;;13.06;100.00
7962;BME280;4026;43.652;24.906;2023-04-30T05:09:16;98947.91;;;13.10;100.00
7962;BME280;4026;43.652;24.906;2023-04-30T05:11:43;98946.69;;;13.14;100.00
7962;BME280;4026;43.652;24.906;2023-04-30T05:14:10;98940.84;;;13.43;100.00
7962;BME280;4026;43.652;24.906;2023-04-30T05:16:37;98940.22;;;13.60;99.25
7962;BME280;4026;43.652;24.906;2023-04-30T05:19:04;98942.38;;;13.84;99.65
7962;BME280;4026;43.652;24.906;2023-04-30T05:21:31;98943.06;;;13.96;97.42
7962;BME280;4026;43.652;24.906;2023-04-30T05:23:59;98952.66;;;14.13;95.11
7962;BME280;4026;43.652;24.906;2023-04-30T05:26:26;98954.56;;;13.82;92.92
7962;BME280;4026;43.652;24.906;2023-04-30T05:28:53;98951.59;;;13.77;93.03
7962;BME280;4026;43.652;24.906;2023-04-30T05:31:19;98955.34;;;14.21;93.57
7962;BME280;4026;43.652;24.906;2023-04-30T05:33:46;98957.22;;;14.39;91.79
7962;BME280;4026;43.652;24.906;2023-04-30T05:36:13;98951.56;;;14.55;89.37
7962;BME280;4026;43.652;24.906;2023-04-30T05:38:40;98962.06;;;14.71;91.45
7962;BME280;4026;43.652;24.906;2023-04-30T05:41:09;98956.66;;;14.64;89.56
7962;BME280;4026;43.652;24.906;2023-04-30T05:43:36;98952.75;;;14.60;90.61
7962;BME280;4026;43.652;24.906;2023-04-30T05:46:03;98953.69;;;14.59;89.38
7962;BME280;4026;43.652;24.906;2023-04-30T05:48:30;98947.22;;;14.55;90.09
7962;BME280;4026;43.652;24.906;2023-04-30T05:50:57;98950.44;;;14.47;91.68
7962;BME280;4026;43.652;24.906;2023-04-30T05:53:24;98953.41;;;14.62;93.25
7962;BME280;4026;43.652;24.906;2023-04-30T05:55:51;98951.81;;;14.61;91.05
7962;BME280;4026;43.652;24.906;2023-04-30T05:58:19;98961.25;;;14.70;91.25
7962;BME280;4026;43.652;24.906;2023-04-30T06:00:48;98959.19;;;14.74;90.26
7962;BME280;4026;43.652;24.906;2023-04-30T06:03:15;98959.84;;;14.86;91.76
7962;BME280;4026;43.652;24.906;2023-04-30T06:05:42;98961.28;;;14.61;92.87
7962;BME280;4026;43.652;24.906;2023-04-30T06:08:08;98969.09;;;14.79;92.85
7962;BME280;4026;43.652;24.906;2023-04-30T06:10:36;98967.00;;;14.92;91.47
7962;BME280;4026;43.652;24.906;2023-04-30T06:13:03;98973.38;;;14.88;87.49
7962;BME280;4026;43.652;24.906;2023-04-30T06:15:32;98970.13;;;14.96;91.21
7962;BME280;4026;43.652;24.906;2023-04-30T06:17:58;98970.16;;;15.13;90.83
7962;BME280;4026;43.652;24.906;2023-04-30T06:20:25;98976.66;;;15.45;90.62
7962;BME280;4026;43.652;24.906;2023-04-30T06:22:52;98984.28;;;15.37;84.55
7962;BME280;4026;43.652;24.906;2023-04-30T06:25:19;98985.72;;;15.22;85.25
7962;BME280;4026;43.652;24.906;2023-04-30T06:27:46;98985.16;;;15.28;84.58
7962;BME280;4026;43.652;24.906;2023-04-30T06:30:13;98980.00;;;15.28;86.75
7962;BME280;4026;43.652;24.906;2023-04-30T06:32:41;98982.88;;;15.88;85.15
7962;BME280;4026;43.652;24.906;2023-04-30T06:35:08;98981.13;;;16.06;83.02
7962;BME280;4026;43.652;24.906;2023-04-30T06:37:35;98983.66;;;16.42;79.46
7962;BME280;4026;43.652;24.906;2023-04-30T06:40:03;98978.66;;;16.67;78.99
7962;BME280;4026;43.652;24.906;2023-04-30T06:42:30;98974.91;;;16.35;78.25
7962;BME280;4026;43.652;24.906;2023-04-30T06:44:59;98977.47;;;15.91;77.61
7962;BME280;4026;43.652;24.906;2023-04-30T06:47:26;98979.97;;;15.83;76.39
7962;BME280;4026;43.652;24.906;2023-04-30T06:49:55;98980.69;;;15.93;78.27
7962;BME280;4026;43.652;24.906;2023-04-30T06:52:22;98987.19;;;15.97;73.94
7962;BME280;4026;43.652;24.906;2023-04-30T06:54:49;98984.31;;;15.82;74.61
7962;BME280;4026;43.652;24.906;2023-04-30T06:57:16;98990.47;;;16.07;73.98
7962;BME280;4026;43.652;24.906;2023-04-30T06:59:42;98997.69;;;16.22;75.15
7962;BME280;4026;43.652;24.906;2023-04-30T07:02:09;98997.03;;;16.20;73.15
7962;BME280;4026;43.652;24.906;2023-04-30T07:04:36;98991.88;;;16.38;73.56
7962;BME280;4026;43.652;24.906;2023-04-30T07:07:04;98985.84;;;16.29;74.95
7962;BME280;4026;43.652;24.906;2023-04-30T07:09:31;98988.00;;;15.98;70.72
7962;BME280;4026;43.652;24.906;2023-04-30T07:11:58;98983.63;;;15.98;73.30
7962;BME280;4026;43.652;24.906;2023-04-30T07:14:25;98988.78;;;15.98;71.83
7962;BME280;4026;43.652;24.906;2023-04-30T07:16:52;98990.78;;;15.87;71.57
7962;BME280;4026;43.652;24.906;2023-04-30T07:19:19;98995.63;;;16.07;72.60
7962;BME280;4026;43.652;24.906;2023-04-30T07:21:46;98996.00;;;16.13;73.05
7962;BME280;4026;43.652;24.906;2023-04-30T07:24:14;98991.88;;;16.20;73.03
7962;BME280;4026;43.652;24.906;2023-04-30T07:26:40;98997.53;;;16.41;75.22
7962;BME280;4026;43.652;24.906;2023-04-30T07:29:07;98997.06;;;16.46;73.53
7962;BME280;4026;43.652;24.906;2023-04-30T07:31:34;98993.41;;;16.30;71.13
7962;BME280;4026;43.652;24.906;2023-04-30T07:34:01;98988.19;;;16.92;74.89
7962;BME280;4026;43.652;24.906;2023-04-30T07:36:28;98993.38;;;17.01;67.73
7962;BME280;4026;43.652;24.906;2023-04-30T07:38:55;98992.72;;;16.98;69.77
7962;BME280;4026;43.652;24.906;2023-04-30T07:41:23;98999.22;;;17.03;69.89
7962;BME280;4026;43.652;24.906;2023-04-30T07:43:50;98994.69;;;17.47;67.90
7962;BME280;4026;43.652;24.906;2023-04-30T07:46:17;98998.56;;;18.10;68.96
7962;BME280;4026;43.652;24.906;2023-04-30T07:48:44;98992.09;;;18.39;63.84
7962;BME280;4026;43.652;24.906;2023-04-30T07:51:11;98996.28;;;18.48;61.50
7962;BME280;4026;43.652;24.906;2023-04-30T07:53:37;99004.66;;;18.66;58.21
7962;BME280;4026;43.652;24.906;2023-04-30T07:56:04;99001.59;;;19.27;58.21
7962;BME280;4026;43.652;24.906;2023-04-30T07:58:34;99006.13;;;19.33;56.01
7962;BME280;4026;43.652;24.906;2023-04-30T08:01:00;99009.06;;;19.21;55.80
7962;BME280;4026;43.652;24.906;2023-04-30T08:03:28;99008.75;;;19.25;55.90
7962;BME280;4026;43.652;24.906;2023-04-30T08:05:55;99007.16;;;19.15;56.96
7962;BME280;4026;43.652;24.906;2023-04-30T08:08:22;99004.41;;;19.17;58.68
7962;BME280;4026;43.652;24.906;2023-04-30T08:10:48;98999.28;;;19.71;60.11
7962;BME280;4026;43.652;24.906;2023-04-30T08:13:15;99002.16;;;20.45;61.33
7962;BME280;4026;43.652;24.906;2023-04-30T08:15:43;99004.88;;;21.26;55.08
7962;BME280;4026;43.652;24.906;2023-04-30T08:18:10;99001.09;;;21.43;56.22
7962;BME280;4026;43.652;24.906;2023-04-30T08:20:38;98999.94;;;21.82;53.19
7962;BME280;4026;43.652;24.906;2023-04-30T08:23:05;99005.25;;;21.96;54.41
7962;BME280;4026;43.652;24.906;2023-04-30T08:25:32;99005.09;;;22.19;50.58
7962;BME280;4026;43.652;24.906;2023-04-30T08:27:58;99007.38;;;22.56;52.50
7962;BME280;4026;43.652;24.906;2023-04-30T08:30:25;98995.75;;;22.09;48.74
7962;BME280;4026;43.652;24.906;2023-04-30T08:32:53;99000.13;;;22.02;50.61
7962;BME280;4026;43.652;24.906;2023-04-30T08:35:20;98996.94;;;22.07;48.04
7962;BME280;4026;43.652;24.906;2023-04-30T08:37:47;99006.53;;;22.49;47.77
7962;BME280;4026;43.652;24.906;2023-04-30T08:40:14;98997.56;;;22.93;45.47
7962;BME280;4026;43.652;24.906;2023-04-30T08:42:45;98989.75;;;23.35;44.30
7962;BME280;4026;43.652;24.906;2023-04-30T08:45:16;98992.19;;;23.43;44.91
7962;BME280;4026;43.652;24.906;2023-04-30T08:47:44;98996.44;;;23.57;41.40
7962;BME280;4026;43.652;24.906;2023-04-30T08:50:13;98989.41;;;23.51;43.12
7962;BME280;4026;43.652;24.906;2023-04-30T08:52:41;98991.13;;;23.85;41.14
7962;BME280;4026;43.652;24.906;2023-04-30T08:55:09;98992.09;;;23.78;38.76
7962;BME280;4026;43.652;24.906;2023-04-30T08:57:36;98995.22;;;23.53;38.27
7962;BME280;4026;43.652;24.906;2023-04-30T09:00:05;98989.13;;;23.94;42.03
7962;BME280;4026;43.652;24.906;2023-04-30T09:02:32;98986.28;;;24.29;39.79
7962;BME280;4026;43.652;24.906;2023-04-30T09:05:00;98979.06;;;24.31;39.66
7962;BME280;4026;43.652;24.906;2023-04-30T09:07:30;98980.88;;;24.37;37.29
7962;BME280;4026;43.652;24.906;2023-04-30T09:09:59;98976.66;;;24.03;34.08
7962;BME280;4026;43.652;24.906;2023-04-30T09:12:26;98969.03;;;24.14;36.84
7962;BME280;4026;43.652;24.906;2023-04-30T09:15:03;98970.22;;;24.58;37.38
7962;BME280;4026;43.652;24.906;2023-04-30T09:17:31;98976.97;;;24.86;33.13
7962;BME280;4026;43.652;24.906;2023-04-30T09:20:06;98971.63;;;25.26;35.51
7962;BME280;4026;43.652;24.906;2023-04-30T09:22:35;98966.06;;;24.96;36.95
7962;BME280;4026;43.652;24.906;2023-04-30T09:25:03;98971.22;;;24.51;35.80
7962;BME280;4026;43.652;24.906;2023-04-30T09:27:30;98975.59;;;24.77;35.28
7962;BME280;4026;43.652;24.906;2023-04-30T09:29:57;98971.81;;;24.73;37.29
7962;BME280;4026;43.652;24.906;2023-04-30T09:32:24;98970.38;;;25.35;35.77
7962;BME280;4026;43.652;24.906;2023-04-30T09:34:51;98963.81;;;25.58;35.22
7962;BME280;4026;43.652;24.906;2023-04-30T09:37:18;98970.16;;;24.85;36.82
7962;BME280;4026;43.652;24.906;2023-04-30T09:39:52;98968.03;;;24.55;38.65
7962;BME280;4026;43.652;24.906;2023-04-30T09:42:19;98962.72;;;24.75;36.31
7962;BME280;4026;43.652;24.906;2023-04-30T09:44:46;98955.50;;;24.71;38.73
7962;BME280;4026;43.652;24.906;2023-04-30T09:47:14;98947.66;;;24.71;37.82
7962;BME280;4026;43.652;24.906;2023-04-30T09:49:42;98951.31;;;24.36;37.14
7962;BME280;4026;43.652;24.906;2023-04-30T09:52:10;98942.13;;;25.05;36.15
7962;BME280;4026;43.652;24.906;2023-04-30T09:54:37;98940.31;;;24.99;38.69
7962;BME280;4026;43.652;24.906;2023-04-30T09:57:09;98942.66;;;24.49;38.97
7962;BME280;4026;43.652;24.906;2023-04-30T09:59:37;98936.25;;;24.45;38.73
7962;BME280;4026;43.652;24.906;2023-04-30T10:02:05;98940.66;;;25.10;38.52
7962;BME280;4026;43.652;24.906;2023-04-30T10:04:33;98950.81;;;24.86;37.46
7962;BME280;4026;43.652;24.906;2023-04-30T10:07:03;98942.00;;;24.80;39.15
7962;BME280;4026;43.652;24.906;2023-04-30T10:09:37;98941.25;;;24.60;39.24
7962;BME280;4026;43.652;24.906;2023-04-30T10:12:09;98941.66;;;24.57;38.42
7962;BME280;4026;43.652;24.906;2023-04-30T10:14:42;98945.56;;;24.99;39.30
7962;BME280;4026;43.652;24.906;2023-04-30T10:17:13;98942.78;;;24.81;39.05
7962;BME280;4026;43.652;24.906;2023-04-30T10:19:45;98939.91;;;24.96;38.28
7962;BME280;4026;43.652;24.906;2023-04-30T10:22:13;98939.81;;;24.71;39.34
7962;BME280;4026;43.652;24.906;2023-04-30T10:24:41;98926.34;;;25.57;38.45
7962;BME280;4026;43.652;24.906;2023-04-30T10:27:10;98924.78;;;25.49;38.13
7962;BME280;4026;43.652;24.906;2023-04-30T10:29:37;98923.09;;;25.62;36.41
7962;BME280;4026;43.652;24.906;2023-04-30T10:32:05;98926.38;;;25.50;36.54
7962;BME280;4026;43.652;24.906;2023-04-30T10:34:41;98926.19;;;25.07;36.33
7962;BME280;4026;43.652;24.906;2023-04-30T10:37:16;98913.72;;;25.47;39.07
7962;BME280;4026;43.652;24.906;2023-04-30T10:39:46;98918.66;;;25.62;36.86
7962;BME280;4026;43.652;24.906;2023-04-30T10:42:15;98917.69;;;25.25;37.63
7962;BME280;4026;43.652;24.906;2023-04-30T10:44:42;98912.34;;;24.08;36.66
7962;BME280;4026;43.652;24.906;2023-04-30T10:47:09;98917.06;;;24.84;37.02
7962;BME280;4026;43.652;24.906;2023-04-30T10:49:36;98920.16;;;25.06;37.71
7962;BME280;4026;43.652;24.906;2023-04-30T10:52:05;98906.63;;;25.55;36.33
7962;BME280;4026;43.652;24.906;2023-04-30T10:54:34;98912.97;;;25.65;37.83
7962;BME280;4026;43.652;24.906;2023-04-30T10:57:08;98902.81;;;25.19;35.92
7962;BME280;4026;43.652;24.906;2023-04-30T10:59:41;98909.00;;;25.63;35.02
7962;BME280;4026;43.652;24.906;2023-04-30T11:02:10;98898.94;;;25.60;34.67
7962;BME280;4026;43.652;24.906;2023-04-30T11:05:10;98904.63;;;26.07;37.89
7962;BME280;4026;43.652;24.906;2023-04-30T11:07:45;98897.47;;;25.95;35.69
7962;BME280;4026;43.652;24.906;2023-04-30T11:10:14;98895.69;;;25.64;37.77
7962;BME280;4026;43.652;24.906;2023-04-30T11:12:46;98898.97;;;25.28;34.75
7962;BME280;4026;43.652;24.906;2023-04-30T11:15:16;98901.47;;;25.41;33.65
7962;BME280;4026;43.652;24.906;2023-04-30T11:17:45;98907.69;;;25.08;30.67
7962;BME280;4026;43.652;24.906;2023-04-30T11:20:13;98908.03;;;25.19;32.28
7962;BME280;4026;43.652;24.906;2023-04-30T11:22:40;98907.69;;;25.08;31.18
7962;BME280;4026;43.652;24.906;2023-04-30T11:25:08;98903.28;;;25.72;31.46
7962;BME280;4026;43.652;24.906;2023-04-30T11:27:38;98902.13;;;25.62;33.97
7962;BME280;4026;43.652;24.906;2023-04-30T11:30:10;98902.09;;;24.98;37.04
7962;BME280;4026;43.652;24.906;2023-04-30T11:32:39;98898.56;;;25.81;34.59
7962;BME280;4026;43.652;24.906;2023-04-30T11:35:06;98890.50;;;25.58;33.64
7962;BME280;4026;43.652;24.906;2023-04-30T11:37:34;98881.44;;;25.85;33.54
7962;BME280;4026;43.652;24.906;2023-04-30T11:40:03;98877.88;;;25.73;34.43
7962;BME280;4026;43.652;24.906;2023-04-30T11:42:32;98880.47;;;25.55;33.16
7962;BME280;4026;43.652;24.906;2023-04-30T11:45:07;98884.94;;;25.72;35.67
7962;BME280;4026;43.652;24.906;2023-04-30T11:47:42;98880.41;;;25.61;31.68
7962;BME280;4026;43.652;24.906;2023-04-30T11:50:11;98879.81;;;25.59;35.83
7962;BME280;4026;43.652;24.906;2023-04-30T11:52:38;98878.69;;;25.17;34.20
7962;BME280;4026;43.652;24.906;2023-04-30T11:55:08;98879.25;;;25.50;35.65
7962;BME280;4026;43.652;24.906;2023-04-30T11:57:42;98880.00;;;25.89;33.75
7962;BME280;4026;43.652;24.906;2023-04-30T12:00:13;98878.22;;;26.27;34.00
7962;BME280;4026;43.652;24.906;2023-04-30T12:02:43;98865.25;;;26.32;35.35
7962;BME280;4026;43.652;24.906;2023-04-30T12:05:12;98869.75;;;25.81;36.28
7962;BME280;4026;43.652;24.906;2023-04-30T12:07:49;98867.19;;;25.49;35.21
7962;BME280;4026;43.652;24.906;2023-04-30T12:10:18;98866.81;;;25.46;35.16
7962;BME280;4026;43.652;24.906;2023-04-30T12:12:46;98864.84;;;25.91;35.03
7962;BME280;4026;43.652;24.906;2023-04-30T12:15:14;98862.59;;;25.70;35.46
7962;BME280;4026;43.652;24.906;2023-04-30T12:17:43;98863.47;;;25.64;37.32
7962;BME280;4026;43.652;24.906;2023-04-30T12:20:11;98862.44;;;25.40;37.89
7962;BME280;4026;43.652;24.906;2023-04-30T12:22:39;98855.28;;;25.53;37.75
7962;BME280;4026;43.652;24.906;2023-04-30T12:25:07;98861.25;;;25.92;37.26
7962;BME280;4026;43.652;24.906;2023-04-30T12:27:36;98864.75;;;25.55;35.78
7962;BME280;4026;43.652;24.906;2023-04-30T12:30:05;98859.09;;;25.26;36.59
7962;BME280;4026;43.652;24.906;2023-04-30T12:32:40;98855.25;;;25.60;35.71
7962;BME280;4026;43.652;24.906;2023-04-30T12:35:14;98841.03;;;25.49;37.05
7962;BME280;4026;43.652;24.906;2023-04-30T12:37:42;98841.03;;;25.49;34.99
7962;BME280;4026;43.652;24.906;2023-04-30T12:40:11;98847.09;;;25.43;35.21
7962;BME280;4026;43.652;24.906;2023-04-30T12:42:40;98848.50;;;24.76;35.43
7962;BME280;4026;43.652;24.906;2023-04-30T12:45:08;98834.34;;;24.90;35.80
7962;BME280;4026;43.652;24.906;2023-04-30T12:47:38;98838.13;;;24.94;36.66
7962;BME280;4026;43.652;24.906;2023-04-30T12:50:09;98834.91;;;24.92;36.52
7962;BME280;4026;43.652;24.906;2023-04-30T12:52:37;98834.59;;;24.82;36.60
7962;BME280;4026;43.652;24.906;2023-04-30T12:55:15;98828.94;;;24.85;35.55
7962;BME280;4026;43.652;24.906;2023-04-30T12:58:07;98838.28;;;24.68;36.56
7962;BME280;4026;43.652;24.906;2023-04-30T13:00:48;98823.38;;;24.68;36.48
7962;BME280;4026;43.652;24.906;2023-04-30T13:03:16;98831.50;;;24.53;37.25
7962;BME280;4026;43.652;24.906;2023-04-30T13:05:49;98818.63;;;24.58;36.15
7962;BME280;4026;43.652;24.906;2023-04-30T13:08:17;98821.41;;;24.57;37.72
7962;BME280;4026;43.652;24.906;2023-04-30T13:10:45;98818.28;;;24.35;39.24
7962;BME280;4026;43.652;24.906;2023-04-30T13:13:12;98813.28;;;24.78;37.84
7962;BME280;4026;43.652;24.906;2023-04-30T13:15:41;98809.16;;;24.57;36.12
7962;BME280;4026;43.652;24.906;2023-04-30T13:18:08;98809.28;;;24.76;36.18